Terminal Aerodrome Forecast
Issued by NWS

Home | Current Version | Previous Version | Text Only | Print | Product List | Glossary On
Versions: 1 2 3 4 5 6 7 8 9 10 11 12 13 14 15 16 17 18 19 20 21 22 23 24 25 26 27 28 29 30 31 32 33 34 35
000
FTUS44 KEWX 261242 AAB
TAFSSF
TAF AMD
KSSF 261242Z 2613/2712 36004KT P6SM -RA BKN018 BKN026 BKN110
     FM261400 02008KT P6SM VCSH SCT008 OVC015
     FM261900 02012KT P6SM OVC015
     FM270000 36008KT P6SM OVC025=

USA.gov is the U.S. government's official web portal to all federal, state and local government web resources and services.